Terminal Aerodrome Forecast
Issued by NWS

Home | Current Version | Previous Version | Text Only | Print | Product List | Glossary On
Versions: 1 2 3 4 5 6 7 8 9 10 11 12 13 14 15 16 17 18
000
FTUS41 KGYX 170927 AAB
TAFPSM
TAF AMD
KPSM 170927Z 1709/1806 VRB03KT P6SM SCT001
     FM171300 VRB03KT P6SM FEW050
     FM171800 15008KT P6SM SCT100 BKN250
     FM180000 VRB03KT P6SM SCT100 BKN250=

USA.gov is the U.S. government's official web portal to all federal, state and local government web resources and services.